sensor_id;sensor_type;location;lat;lon;timestamp;P1;durP1;ratioP1;P2;durP2;ratioP2
11699;SDS011;5906;51.660;6.674;2023-06-05T00:01:10;5.97;;;4.10;;
11699;SDS011;5906;51.660;6.674;2023-06-05T00:03:37;9.70;;;4.20;;
11699;SDS011;5906;51.660;6.674;2023-06-05T00:06:06;8.87;;;4.60;;
11699;SDS011;5906;51.660;6.674;2023-06-05T00:08:33;7.37;;;3.77;;
11699;SDS011;5906;51.660;6.674;2023-06-05T00:11:00;5.80;;;4.00;;
11699;SDS011;5906;51.660;6.674;2023-06-05T00:13:28;4.87;;;3.30;;
11699;SDS011;5906;51.660;6.674;2023-06-05T00:15:54;7.30;;;4.60;;
11699;SDS011;5906;51.660;6.674;2023-06-05T00:18:22;10.80;;;4.67;;
11699;SDS011;5906;51.660;6.674;2023-06-05T00:20:50;4.10;;;3.60;;
11699;SDS011;5906;51.660;6.674;2023-06-05T00:23:17;6.50;;;4.10;;
11699;SDS011;5906;51.660;6.674;2023-06-05T00:25:43;8.87;;;4.20;;
11699;SDS011;5906;51.660;6.674;2023-06-05T00:28:10;7.93;;;4.10;;
11699;SDS011;5906;51.660;6.674;2023-06-05T00:30:37;9.00;;;5.13;;
11699;SDS011;5906;51.660;6.674;2023-06-05T00:33:05;5.70;;;4.17;;
11699;SDS011;5906;51.660;6.674;2023-06-05T00:35:32;8.60;;;4.40;;
11699;SDS011;5906;51.660;6.674;2023-06-05T00:37:59;7.37;;;4.33;;
11699;SDS011;5906;51.660;6.674;2023-06-05T00:40:26;6.40;;;4.40;;
11699;SDS011;5906;51.660;6.674;2023-06-05T00:42:53;7.97;;;4.70;;
11699;SDS011;5906;51.660;6.674;2023-06-05T00:45:21;6.63;;;4.50;;
11699;SDS011;5906;51.660;6.674;2023-06-05T00:47:48;5.70;;;4.00;;
11699;SDS011;5906;51.660;6.674;2023-06-05T00:50:15;15.87;;;4.50;;
11699;SDS011;5906;51.660;6.674;2023-06-05T00:52:44;5.90;;;3.93;;
11699;SDS011;5906;51.660;6.674;2023-06-05T00:55:13;7.73;;;5.00;;
11699;SDS011;5906;51.660;6.674;2023-06-05T00:57:40;6.87;;;4.40;;
11699;SDS011;5906;51.660;6.674;2023-06-05T01:00:07;8.60;;;4.20;;
11699;SDS011;5906;51.660;6.674;2023-06-05T01:02:35;8.57;;;5.50;;
11699;SDS011;5906;51.660;6.674;2023-06-05T01:05:04;8.60;;;5.30;;
11699;SDS011;5906;51.660;6.674;2023-06-05T01:07:34;9.33;;;4.70;;
11699;SDS011;5906;51.660;6.674;2023-06-05T01:10:05;10.47;;;4.63;;
11699;SDS011;5906;51.660;6.674;2023-06-05T01:15:33;8.57;;;5.63;;
11699;SDS011;5906;51.660;6.674;2023-06-05T01:18:02;7.00;;;4.70;;
11699;SDS011;5906;51.660;6.674;2023-06-05T01:20:34;8.80;;;5.27;;
11699;SDS011;5906;51.660;6.674;2023-06-05T01:23:03;5.87;;;4.47;;
11699;SDS011;5906;51.660;6.674;2023-06-05T01:25:34;8.03;;;4.80;;
11699;SDS011;5906;51.660;6.674;2023-06-05T01:33:33;7.30;;;5.00;;
11699;SDS011;5906;51.660;6.674;2023-06-05T01:36:11;8.87;;;5.50;;
11699;SDS011;5906;51.660;6.674;2023-06-05T01:38:39;9.87;;;5.67;;
11699;SDS011;5906;51.660;6.674;2023-06-05T01:41:08;9.70;;;5.70;;
11699;SDS011;5906;51.660;6.674;2023-06-05T01:43:37;8.13;;;5.67;;
11699;SDS011;5906;51.660;6.674;2023-06-05T01:46:05;13.60;;;5.70;;
11699;SDS011;5906;51.660;6.674;2023-06-05T01:48:34;7.87;;;5.20;;
11699;SDS011;5906;51.660;6.674;2023-06-05T01:51:02;9.53;;;5.20;;
11699;SDS011;5906;51.660;6.674;2023-06-05T01:53:29;10.03;;;5.17;;
11699;SDS011;5906;51.660;6.674;2023-06-05T01:55:56;6.80;;;5.30;;
11699;SDS011;5906;51.660;6.674;2023-06-05T01:58:23;14.70;;;5.70;;
11699;SDS011;5906;51.660;6.674;2023-06-05T02:00:51;9.57;;;5.50;;
11699;SDS011;5906;51.660;6.674;2023-06-05T02:03:19;9.33;;;5.07;;
11699;SDS011;5906;51.660;6.674;2023-06-05T02:05:46;10.77;;;5.93;;
11699;SDS011;5906;51.660;6.674;2023-06-05T02:08:14;9.30;;;5.70;;
11699;SDS011;5906;51.660;6.674;2023-06-05T02:10:46;9.57;;;5.67;;
11699;SDS011;5906;51.660;6.674;2023-06-05T02:13:13;7.80;;;5.50;;
11699;SDS011;5906;51.660;6.674;2023-06-05T02:15:45;10.23;;;5.60;;
11699;SDS011;5906;51.660;6.674;2023-06-05T02:18:12;8.93;;;5.87;;
11699;SDS011;5906;51.660;6.674;2023-06-05T02:20:40;8.87;;;6.50;;
11699;SDS011;5906;51.660;6.674;2023-06-05T02:23:08;9.60;;;5.80;;
11699;SDS011;5906;51.660;6.674;2023-06-05T02:25:35;7.37;;;5.07;;
11699;SDS011;5906;51.660;6.674;2023-06-05T02:28:03;9.53;;;5.13;;
11699;SDS011;5906;51.660;6.674;2023-06-05T02:30:30;11.07;;;6.40;;
11699;SDS011;5906;51.660;6.674;2023-06-05T02:32:59;10.00;;;6.30;;
11699;SDS011;5906;51.660;6.674;2023-06-05T02:35:28;11.13;;;6.07;;
11699;SDS011;5906;51.660;6.674;2023-06-05T02:37:55;20.23;;;6.30;;
11699;SDS011;5906;51.660;6.674;2023-06-05T02:40:24;13.33;;;6.07;;
11699;SDS011;5906;51.660;6.674;2023-06-05T02:45:20;8.43;;;5.43;;
11699;SDS011;5906;51.660;6.674;2023-06-05T02:47:50;9.20;;;5.63;;
11699;SDS011;5906;51.660;6.674;2023-06-05T02:50:17;9.23;;;6.30;;
11699;SDS011;5906;51.660;6.674;2023-06-05T02:52:45;14.63;;;6.50;;
11699;SDS011;5906;51.660;6.674;2023-06-05T02:55:12;15.07;;;5.30;;
11699;SDS011;5906;51.660;6.674;2023-06-05T02:57:39;9.03;;;5.90;;
11699;SDS011;5906;51.660;6.674;2023-06-05T03:00:09;10.10;;;6.13;;
11699;SDS011;5906;51.660;6.674;2023-06-05T03:02:41;8.87;;;6.97;;
11699;SDS011;5906;51.660;6.674;2023-06-05T03:05:09;9.47;;;6.10;;
11699;SDS011;5906;51.660;6.674;2023-06-05T03:07:36;10.83;;;5.77;;
11699;SDS011;5906;51.660;6.674;2023-06-05T03:10:03;12.20;;;6.60;;
11699;SDS011;5906;51.660;6.674;2023-06-05T03:12:31;11.43;;;6.43;;
11699;SDS011;5906;51.660;6.674;2023-06-05T03:14:58;12.40;;;6.83;;
11699;SDS011;5906;51.660;6.674;2023-06-05T03:17:25;11.60;;;6.13;;
11699;SDS011;5906;51.660;6.674;2023-06-05T03:19:54;11.97;;;6.93;;
11699;SDS011;5906;51.660;6.674;2023-06-05T03:22:21;8.17;;;6.03;;
11699;SDS011;5906;51.660;6.674;2023-06-05T03:24:50;11.07;;;6.20;;
11699;SDS011;5906;51.660;6.674;2023-06-05T03:27:18;17.90;;;6.83;;
11699;SDS011;5906;51.660;6.674;2023-06-05T03:29:45;9.90;;;6.80;;
11699;SDS011;5906;51.660;6.674;2023-06-05T03:32:12;11.57;;;6.47;;
11699;SDS011;5906;51.660;6.674;2023-06-05T03:34:39;10.50;;;6.67;;
11699;SDS011;5906;51.660;6.674;2023-06-05T03:37:09;16.47;;;8.03;;
11699;SDS011;5906;51.660;6.674;2023-06-05T03:39:36;11.07;;;7.07;;
11699;SDS011;5906;51.660;6.674;2023-06-05T03:42:05;10.27;;;6.40;;
11699;SDS011;5906;51.660;6.674;2023-06-05T03:44:38;13.53;;;7.60;;
11699;SDS011;5906;51.660;6.674;2023-06-05T03:47:06;12.67;;;6.87;;
11699;SDS011;5906;51.660;6.674;2023-06-05T03:49:34;12.70;;;6.73;;
11699;SDS011;5906;51.660;6.674;2023-06-05T03:52:02;14.10;;;7.50;;
11699;SDS011;5906;51.660;6.674;2023-06-05T03:54:31;12.43;;;7.23;;
11699;SDS011;5906;51.660;6.674;2023-06-05T03:57:01;9.70;;;6.43;;
11699;SDS011;5906;51.660;6.674;2023-06-05T03:59:28;12.53;;;7.50;;
11699;SDS011;5906;51.660;6.674;2023-06-05T04:01:56;12.27;;;6.73;;
11699;SDS011;5906;51.660;6.674;2023-06-05T04:04:23;12.23;;;7.37;;
11699;SDS011;5906;51.660;6.674;2023-06-05T04:06:53;14.20;;;7.67;;
11699;SDS011;5906;51.660;6.674;2023-06-05T04:09:22;16.70;;;7.63;;
11699;SDS011;5906;51.660;6.674;2023-06-05T04:11:49;14.60;;;7.07;;
11699;SDS011;5906;51.660;6.674;2023-06-05T04:14:16;11.80;;;6.67;;
11699;SDS011;5906;51.660;6.674;2023-06-05T04:16:44;14.40;;;7.47;;
11699;SDS011;5906;51.660;6.674;2023-06-05T04:19:11;15.50;;;8.00;;
11699;SDS011;5906;51.660;6.674;2023-06-05T04:21:39;13.77;;;7.37;;
11699;SDS011;5906;51.660;6.674;2023-06-05T04:24:10;12.60;;;7.23;;
11699;SDS011;5906;51.660;6.674;2023-06-05T04:26:38;14.70;;;7.57;;
11699;SDS011;5906;51.660;6.674;2023-06-05T04:29:08;16.80;;;8.40;;
11699;SDS011;5906;51.660;6.674;2023-06-05T04:31:45;12.60;;;7.57;;
11699;SDS011;5906;51.660;6.674;2023-06-05T04:34:16;10.97;;;6.93;;
11699;SDS011;5906;51.660;6.674;2023-06-05T04:36:47;12.23;;;8.07;;
11699;SDS011;5906;51.660;6.674;2023-06-05T04:39:16;13.93;;;8.00;;
11699;SDS011;5906;51.660;6.674;2023-06-05T04:41:45;16.00;;;9.30;;
11699;SDS011;5906;51.660;6.674;2023-06-05T04:44:22;14.00;;;8.30;;
11699;SDS011;5906;51.660;6.674;2023-06-05T04:46:49;13.37;;;7.50;;
11699;SDS011;5906;51.660;6.674;2023-06-05T04:49:18;16.93;;;9.47;;
11699;SDS011;5906;51.660;6.674;2023-06-05T04:51:45;13.00;;;7.17;;
11699;SDS011;5906;51.660;6.674;2023-06-05T04:54:12;13.30;;;8.33;;
11699;SDS011;5906;51.660;6.674;2023-06-05T04:56:39;14.63;;;7.53;;
11699;SDS011;5906;51.660;6.674;2023-06-05T04:59:06;14.93;;;8.20;;
11699;SDS011;5906;51.660;6.674;2023-06-05T05:01:33;12.80;;;8.13;;
11699;SDS011;5906;51.660;6.674;2023-06-05T05:04:00;15.40;;;7.97;;
11699;SDS011;5906;51.660;6.674;2023-06-05T05:06:28;21.87;;;8.47;;
11699;SDS011;5906;51.660;6.674;2023-06-05T05:08:55;13.87;;;8.43;;
11699;SDS011;5906;51.660;6.674;2023-06-05T05:11:22;13.47;;;8.60;;
11699;SDS011;5906;51.660;6.674;2023-06-05T05:13:49;16.37;;;8.37;;
11699;SDS011;5906;51.660;6.674;2023-06-05T05:16:16;14.50;;;8.17;;
11699;SDS011;5906;51.660;6.674;2023-06-05T05:18:43;12.83;;;7.53;;
11699;SDS011;5906;51.660;6.674;2023-06-05T05:21:12;12.00;;;8.37;;
11699;SDS011;5906;51.660;6.674;2023-06-05T05:23:39;13.60;;;8.00;;
11699;SDS011;5906;51.660;6.674;2023-06-05T05:26:06;14.70;;;8.03;;
11699;SDS011;5906;51.660;6.674;2023-06-05T05:28:33;14.83;;;8.57;;
11699;SDS011;5906;51.660;6.674;2023-06-05T05:31:00;14.43;;;8.30;;
11699;SDS011;5906;51.660;6.674;2023-06-05T05:33:29;14.83;;;8.40;;
11699;SDS011;5906;51.660;6.674;2023-06-05T05:35:56;18.53;;;8.20;;
11699;SDS011;5906;51.660;6.674;2023-06-05T05:38:23;13.50;;;8.00;;
11699;SDS011;5906;51.660;6.674;2023-06-05T05:40:50;12.60;;;7.73;;
11699;SDS011;5906;51.660;6.674;2023-06-05T05:43:32;17.00;;;9.03;;
11699;SDS011;5906;51.660;6.674;2023-06-05T05:45:59;13.57;;;8.37;;
11699;SDS011;5906;51.660;6.674;2023-06-05T05:48:28;12.00;;;7.80;;
11699;SDS011;5906;51.660;6.674;2023-06-05T05:50:55;14.60;;;8.00;;
11699;SDS011;5906;51.660;6.674;2023-06-05T05:53:22;13.37;;;7.87;;
11699;SDS011;5906;51.660;6.674;2023-06-05T05:55:49;12.23;;;7.40;;
11699;SDS011;5906;51.660;6.674;2023-06-05T05:58:16;12.13;;;7.53;;
11699;SDS011;5906;51.660;6.674;2023-06-05T06:00:43;11.73;;;7.07;;
11699;SDS011;5906;51.660;6.674;2023-06-05T06:03:10;12.57;;;7.47;;
11699;SDS011;5906;51.660;6.674;2023-06-05T06:05:38;13.73;;;8.07;;
11699;SDS011;5906;51.660;6.674;2023-06-05T06:08:05;12.90;;;6.83;;
11699;SDS011;5906;51.660;6.674;2023-06-05T06:10:32;13.87;;;7.53;;
11699;SDS011;5906;51.660;6.674;2023-06-05T06:12:59;12.60;;;7.20;;
11699;SDS011;5906;51.660;6.674;2023-06-05T06:15:27;15.87;;;8.00;;
11699;SDS011;5906;51.660;6.674;2023-06-05T06:17:54;15.67;;;7.20;;
11699;SDS011;5906;51.660;6.674;2023-06-05T06:20:22;13.57;;;7.70;;
11699;SDS011;5906;51.660;6.674;2023-06-05T06:22:49;11.60;;;7.43;;
11699;SDS011;5906;51.660;6.674;2023-06-05T06:25:17;11.97;;;7.53;;
11699;SDS011;5906;51.660;6.674;2023-06-05T06:27:48;11.10;;;7.10;;
11699;SDS011;5906;51.660;6.674;2023-06-05T06:30:16;14.63;;;7.63;;
11699;SDS011;5906;51.660;6.674;2023-06-05T06:32:43;10.00;;;6.60;;
11699;SDS011;5906;51.660;6.674;2023-06-05T06:35:10;16.90;;;7.40;;
11699;SDS011;5906;51.660;6.674;2023-06-05T06:37:40;15.40;;;8.33;;
11699;SDS011;5906;51.660;6.674;2023-06-05T06:40:07;10.90;;;7.37;;
11699;SDS011;5906;51.660;6.674;2023-06-05T06:42:35;11.67;;;7.60;;
11699;SDS011;5906;51.660;6.674;2023-06-05T06:45:03;11.30;;;7.63;;
11699;SDS011;5906;51.660;6.674;2023-06-05T06:47:30;13.63;;;6.67;;
11699;SDS011;5906;51.660;6.674;2023-06-05T06:49:57;12.77;;;7.50;;
11699;SDS011;5906;51.660;6.674;2023-06-05T06:52:25;10.63;;;7.27;;
11699;SDS011;5906;51.660;6.674;2023-06-05T06:54:52;15.07;;;8.83;;
11699;SDS011;5906;51.660;6.674;2023-06-05T06:57:19;11.70;;;6.87;;
11699;SDS011;5906;51.660;6.674;2023-06-05T06:59:46;10.30;;;6.67;;
11699;SDS011;5906;51.660;6.674;2023-06-05T07:02:17;11.80;;;6.20;;
11699;SDS011;5906;51.660;6.674;2023-06-05T07:04:46;15.87;;;7.67;;
11699;SDS011;5906;51.660;6.674;2023-06-05T07:07:17;10.40;;;6.63;;
11699;SDS011;5906;51.660;6.674;2023-06-05T07:09:45;19.07;;;8.50;;
11699;SDS011;5906;51.660;6.674;2023-06-05T07:12:13;17.00;;;7.57;;
11699;SDS011;5906;51.660;6.674;2023-06-05T07:14:40;14.03;;;6.60;;
11699;SDS011;5906;51.660;6.674;2023-06-05T07:17:08;25.60;;;9.70;;
11699;SDS011;5906;51.660;6.674;2023-06-05T07:19:35;10.90;;;7.07;;
11699;SDS011;5906;51.660;6.674;2023-06-05T07:22:05;11.33;;;7.70;;
11699;SDS011;5906;51.660;6.674;2023-06-05T07:24:33;12.63;;;7.00;;
11699;SDS011;5906;51.660;6.674;2023-06-05T07:27:08;11.60;;;7.90;;
11699;SDS011;5906;51.660;6.674;2023-06-05T07:29:35;12.70;;;7.10;;
11699;SDS011;5906;51.660;6.674;2023-06-05T07:32:02;11.90;;;7.40;;
11699;SDS011;5906;51.660;6.674;2023-06-05T07:34:33;9.83;;;7.07;;
11699;SDS011;5906;51.660;6.674;2023-06-05T07:37:01;10.00;;;7.13;;
11699;SDS011;5906;51.660;6.674;2023-06-05T07:39:29;12.10;;;8.10;;
11699;SDS011;5906;51.660;6.674;2023-06-05T07:41:56;13.70;;;7.77;;
11699;SDS011;5906;51.660;6.674;2023-06-05T07:44:24;12.47;;;7.77;;
11699;SDS011;5906;51.660;6.674;2023-06-05T07:46:51;12.10;;;7.00;;
11699;SDS011;5906;51.660;6.674;2023-06-05T07:49:18;9.23;;;6.80;;
11699;SDS011;5906;51.660;6.674;2023-06-05T07:51:46;11.50;;;7.67;;
11699;SDS011;5906;51.660;6.674;2023-06-05T07:54:15;9.87;;;6.50;;
11699;SDS011;5906;51.660;6.674;2023-06-05T07:56:42;10.30;;;7.07;;
11699;SDS011;5906;51.660;6.674;2023-06-05T07:59:10;9.40;;;7.10;;
11699;SDS011;5906;51.660;6.674;2023-06-05T08:01:42;9.50;;;7.17;;
11699;SDS011;5906;51.660;6.674;2023-06-05T08:04:09;12.00;;;7.77;;
11699;SDS011;5906;51.660;6.674;2023-06-05T08:06:37;13.50;;;7.70;;
11699;SDS011;5906;51.660;6.674;2023-06-05T08:09:07;11.70;;;7.63;;
11699;SDS011;5906;51.660;6.674;2023-06-05T08:11:36;10.63;;;7.23;;
11699;SDS011;5906;51.660;6.674;2023-06-05T08:14:04;16.43;;;7.60;;
11699;SDS011;5906;51.660;6.674;2023-06-05T08:16:33;9.03;;;7.23;;
11699;SDS011;5906;51.660;6.674;2023-06-05T08:19:01;9.50;;;6.43;;
11699;SDS011;5906;51.660;6.674;2023-06-05T08:21:28;9.50;;;6.83;;
11699;SDS011;5906;51.660;6.674;2023-06-05T08:23:55;9.80;;;6.50;;
11699;SDS011;5906;51.660;6.674;2023-06-05T08:26:22;14.07;;;6.70;;
11699;SDS011;5906;51.660;6.674;2023-06-05T08:28:49;10.33;;;7.20;;
11699;SDS011;5906;51.660;6.674;2023-06-05T08:31:18;14.60;;;6.93;;
11699;SDS011;5906;51.660;6.674;2023-06-05T08:33:46;11.80;;;6.60;;
11699;SDS011;5906;51.660;6.674;2023-06-05T08:36:13;11.43;;;6.80;;
11699;SDS011;5906;51.660;6.674;2023-06-05T08:38:40;9.37;;;6.33;;
11699;SDS011;5906;51.660;6.674;2023-06-05T08:41:08;8.03;;;6.53;;
11699;SDS011;5906;51.660;6.674;2023-06-05T08:43:37;10.10;;;6.93;;
11699;SDS011;5906;51.660;6.674;2023-06-05T08:46:09;10.03;;;6.67;;
11699;SDS011;5906;51.660;6.674;2023-06-05T08:48:48;13.70;;;8.10;;
11699;SDS011;5906;51.660;6.674;2023-06-05T08:51:19;10.10;;;6.63;;
11699;SDS011;5906;51.660;6.674;2023-06-05T08:54:02;11.63;;;6.27;;
11699;SDS011;5906;51.660;6.674;2023-06-05T08:56:42;8.33;;;6.00;;
11699;SDS011;5906;51.660;6.674;2023-06-05T08:59:10;10.53;;;6.43;;
11699;SDS011;5906;51.660;6.674;2023-06-05T09:01:41;11.60;;;5.73;;
11699;SDS011;5906;51.660;6.674;2023-06-05T09:04:10;9.30;;;6.67;;
11699;SDS011;5906;51.660;6.674;2023-06-05T09:06:37;12.17;;;6.10;;
11699;SDS011;5906;51.660;6.674;2023-06-05T09:09:06;12.10;;;6.93;;
11699;SDS011;5906;51.660;6.674;2023-06-05T09:11:34;12.30;;;6.20;;
11699;SDS011;5906;51.660;6.674;2023-06-05T09:14:03;14.30;;;6.43;;
11699;SDS011;5906;51.660;6.674;2023-06-05T09:16:43;10.40;;;6.20;;
11699;SDS011;5906;51.660;6.674;2023-06-05T09:19:10;12.10;;;5.80;;
11699;SDS011;5906;51.660;6.674;2023-06-05T09:21:38;11.27;;;5.80;;
11699;SDS011;5906;51.660;6.674;2023-06-05T09:24:13;8.00;;;6.53;;
11699;SDS011;5906;51.660;6.674;2023-06-05T09:26:49;9.07;;;6.13;;
11699;SDS011;5906;51.660;6.674;2023-06-05T09:29:29;9.87;;;7.00;;
11699;SDS011;5906;51.660;6.674;2023-06-05T09:32:04;9.40;;;6.10;;
11699;SDS011;5906;51.660;6.674;2023-06-05T09:34:34;11.40;;;5.50;;
11699;SDS011;5906;51.660;6.674;2023-06-05T09:37:03;8.17;;;6.07;;
11699;SDS011;5906;51.660;6.674;2023-06-05T09:39:34;8.83;;;6.30;;
11699;SDS011;5906;51.660;6.674;2023-06-05T09:42:02;12.50;;;6.23;;
11699;SDS011;5906;51.660;6.674;2023-06-05T09:44:30;12.53;;;5.87;;
11699;SDS011;5906;51.660;6.674;2023-06-05T09:52:10;8.60;;;5.83;;
11699;SDS011;5906;51.660;6.674;2023-06-05T09:54:39;11.90;;;5.87;;
11699;SDS011;5906;51.660;6.674;2023-06-05T09:57:08;10.67;;;6.53;;
11699;SDS011;5906;51.660;6.674;2023-06-05T09:59:45;8.97;;;6.00;;
11699;SDS011;5906;51.660;6.674;2023-06-05T10:02:18;10.97;;;5.20;;
11699;SDS011;5906;51.660;6.674;2023-06-05T10:07:26;8.80;;;5.40;;
11699;SDS011;5906;51.660;6.674;2023-06-05T10:09:54;12.00;;;5.40;;
11699;SDS011;5906;51.660;6.674;2023-06-05T10:12:22;12.43;;;6.20;;
11699;SDS011;5906;51.660;6.674;2023-06-05T10:14:53;8.70;;;5.60;;
11699;SDS011;5906;51.660;6.674;2023-06-05T10:17:22;11.90;;;6.13;;
11699;SDS011;5906;51.660;6.674;2023-06-05T10:19:50;8.13;;;5.10;;
11699;SDS011;5906;51.660;6.674;2023-06-05T10:22:18;9.43;;;6.83;;
11699;SDS011;5906;51.660;6.674;2023-06-05T10:24:56;17.00;;;5.27;;
11699;SDS011;5906;51.660;6.674;2023-06-05T10:35:31;16.83;;;4.60;;
11699;SDS011;5906;51.660;6.674;2023-06-05T10:38:18;8.70;;;4.27;;
11699;SDS011;5906;51.660;6.674;2023-06-05T10:40:53;7.70;;;4.73;;
11699;SDS011;5906;51.660;6.674;2023-06-05T10:49:12;9.20;;;4.53;;
11699;SDS011;5906;51.660;6.674;2023-06-05T10:51:47;6.97;;;4.60;;
11699;SDS011;5906;51.660;6.674;2023-06-05T10:59:23;6.27;;;3.73;;
11699;SDS011;5906;51.660;6.674;2023-06-05T11:07:28;7.07;;;3.60;;
11699;SDS011;5906;51.660;6.674;2023-06-05T11:15:07;4.07;;;3.10;;
11699;SDS011;5906;51.660;6.674;2023-06-05T11:17:35;7.07;;;3.80;;
11699;SDS011;5906;51.660;6.674;2023-06-05T11:20:07;10.07;;;3.03;;
11699;SDS011;5906;51.660;6.674;2023-06-05T11:25:26;5.17;;;3.83;;
11699;SDS011;5906;51.660;6.674;2023-06-05T11:27:55;6.70;;;3.70;;
11699;SDS011;5906;51.660;6.674;2023-06-05T11:30:26;6.40;;;3.43;;
11699;SDS011;5906;51.660;6.674;2023-06-05T11:33:13;10.67;;;3.70;;
11699;SDS011;5906;51.660;6.674;2023-06-05T11:35:46;7.60;;;3.00;;
11699;SDS011;5906;51.660;6.674;2023-06-05T11:38:18;5.90;;;3.80;;
11699;SDS011;5906;51.660;6.674;2023-06-05T11:40:50;6.03;;;3.30;;
11699;SDS011;5906;51.660;6.674;2023-06-05T11:43:18;5.03;;;3.20;;
11699;SDS011;5906;51.660;6.674;2023-06-05T11:48:17;5.90;;;3.13;;
11699;SDS011;5906;51.660;6.674;2023-06-05T11:50:57;6.17;;;3.90;;
11699;SDS011;5906;51.660;6.674;2023-06-05T11:53:31;5.37;;;3.10;;
11699;SDS011;5906;51.660;6.674;2023-06-05T11:55:59;5.40;;;3.00;;
11699;SDS011;5906;51.660;6.674;2023-06-05T11:58:35;9.23;;;3.40;;
11699;SDS011;5906;51.660;6.674;2023-06-05T12:01:17;6.93;;;3.63;;
11699;SDS011;5906;51.660;6.674;2023-06-05T12:03:49;4.53;;;3.13;;
11699;SDS011;5906;51.660;6.674;2023-06-05T12:06:30;4.70;;;3.17;;
11699;SDS011;5906;51.660;6.674;2023-06-05T12:09:06;6.83;;;3.47;;
11699;SDS011;5906;51.660;6.674;2023-06-05T12:11:38;5.17;;;3.23;;
11699;SDS011;5906;51.660;6.674;2023-06-05T12:14:05;4.13;;;3.07;;
11699;SDS011;5906;51.660;6.674;2023-06-05T12:16:36;6.27;;;3.07;;
11699;SDS011;5906;51.660;6.674;2023-06-05T12:19:13;6.80;;;3.00;;
11699;SDS011;5906;51.660;6.674;2023-06-05T12:21:45;6.77;;;3.00;;
11699;SDS011;5906;51.660;6.674;2023-06-05T12:24:14;9.80;;;3.30;;
11699;SDS011;5906;51.660;6.674;2023-06-05T12:29:22;3.30;;;2.70;;
11699;SDS011;5906;51.660;6.674;2023-06-05T12:31:51;3.20;;;2.90;;
11699;SDS011;5906;51.660;6.674;2023-06-05T12:34:19;5.57;;;2.90;;
11699;SDS011;5906;51.660;6.674;2023-06-05T12:39:49;4.67;;;2.60;;
11699;SDS011;5906;51.660;6.674;2023-06-05T12:42:16;5.13;;;2.70;;
11699;SDS011;5906;51.660;6.674;2023-06-05T12:44:43;3.67;;;3.03;;
11699;SDS011;5906;51.660;6.674;2023-06-05T12:47:10;3.50;;;3.20;;
11699;SDS011;5906;51.660;6.674;2023-06-05T12:49:37;4.67;;;2.93;;
11699;SDS011;5906;51.660;6.674;2023-06-05T12:52:07;4.63;;;2.73;;
11699;SDS011;5906;51.660;6.674;2023-06-05T12:54:35;3.83;;;2.30;;
11699;SDS011;5906;51.660;6.674;2023-06-05T12:57:04;5.60;;;3.33;;
11699;SDS011;5906;51.660;6.674;2023-06-05T12:59:38;9.43;;;3.30;;
11699;SDS011;5906;51.660;6.674;2023-06-05T13:02:06;10.20;;;2.87;;
11699;SDS011;5906;51.660;6.674;2023-06-05T13:04:34;7.80;;;2.50;;
11699;SDS011;5906;51.660;6.674;2023-06-05T13:07:02;5.37;;;2.30;;
11699;SDS011;5906;51.660;6.674;2023-06-05T13:09:30;6.33;;;2.87;;
11699;SDS011;5906;51.660;6.674;2023-06-05T13:11:57;3.83;;;3.20;;
11699;SDS011;5906;51.660;6.674;2023-06-05T13:14:30;6.83;;;2.83;;
11699;SDS011;5906;51.660;6.674;2023-06-05T13:16:58;7.13;;;3.30;;
11699;SDS011;5906;51.660;6.674;2023-06-05T13:19:26;4.20;;;2.60;;
11699;SDS011;5906;51.660;6.674;2023-06-05T13:21:53;4.70;;;3.10;;
11699;SDS011;5906;51.660;6.674;2023-06-05T13:24:20;5.60;;;3.43;;
11699;SDS011;5906;51.660;6.674;2023-06-05T13:26:47;4.70;;;3.27;;
11699;SDS011;5906;51.660;6.674;2023-06-05T13:29:15;4.70;;;2.87;;
11699;SDS011;5906;51.660;6.674;2023-06-05T13:31:45;2.50;;;2.30;;
11699;SDS011;5906;51.660;6.674;2023-06-05T13:34:12;3.93;;;2.70;;
11699;SDS011;5906;51.660;6.674;2023-06-05T13:36:39;4.03;;;2.60;;
11699;SDS011;5906;51.660;6.674;2023-06-05T13:39:06;4.40;;;2.90;;
11699;SDS011;5906;51.660;6.674;2023-06-05T13:41:34;3.07;;;2.77;;
11699;SDS011;5906;51.660;6.674;2023-06-05T13:44:02;6.00;;;3.10;;
11699;SDS011;5906;51.660;6.674;2023-06-05T13:46:29;3.90;;;2.90;;
11699;SDS011;5906;51.660;6.674;2023-06-05T13:48:56;3.70;;;2.97;;
11699;SDS011;5906;51.660;6.674;2023-06-05T13:51:26;4.10;;;3.00;;
11699;SDS011;5906;51.660;6.674;2023-06-05T13:53:53;5.73;;;3.00;;
11699;SDS011;5906;51.660;6.674;2023-06-05T13:56:23;6.63;;;3.60;;
11699;SDS011;5906;51.660;6.674;2023-06-05T13:58:51;5.60;;;3.27;;
11699;SDS011;5906;51.660;6.674;2023-06-05T14:01:19;3.90;;;2.53;;
11699;SDS011;5906;51.660;6.674;2023-06-05T14:03:46;5.60;;;2.83;;
11699;SDS011;5906;51.660;6.674;2023-06-05T14:06:15;3.97;;;2.90;;
11699;SDS011;5906;51.660;6.674;2023-06-05T14:08:44;4.90;;;3.43;;
11699;SDS011;5906;51.660;6.674;2023-06-05T14:11:12;4.97;;;2.63;;
11699;SDS011;5906;51.660;6.674;2023-06-05T14:13:39;7.90;;;2.90;;
11699;SDS011;5906;51.660;6.674;2023-06-05T14:16:06;3.13;;;2.70;;
11699;SDS011;5906;51.660;6.674;2023-06-05T14:18:37;3.90;;;2.60;;
11699;SDS011;5906;51.660;6.674;2023-06-05T14:21:04;6.30;;;2.90;;
11699;SDS011;5906;51.660;6.674;2023-06-05T14:23:32;6.03;;;2.53;;
11699;SDS011;5906;51.660;6.674;2023-06-05T14:25:59;3.60;;;2.43;;
11699;SDS011;5906;51.660;6.674;2023-06-05T14:28:26;5.97;;;2.97;;
11699;SDS011;5906;51.660;6.674;2023-06-05T14:30:54;3.80;;;2.40;;
11699;SDS011;5906;51.660;6.674;2023-06-05T14:33:22;4.43;;;2.60;;
11699;SDS011;5906;51.660;6.674;2023-06-05T14:35:49;5.17;;;3.50;;
11699;SDS011;5906;51.660;6.674;2023-06-05T14:38:17;3.67;;;3.30;;
11699;SDS011;5906;51.660;6.674;2023-06-05T14:40:44;4.07;;;2.97;;
11699;SDS011;5906;51.660;6.674;2023-06-05T14:43:11;5.17;;;2.70;;
11699;SDS011;5906;51.660;6.674;2023-06-05T14:45:39;10.30;;;2.70;;
11699;SDS011;5906;51.660;6.674;2023-06-05T14:48:07;4.30;;;2.87;;
11699;SDS011;5906;51.660;6.674;2023-06-05T14:50:37;6.57;;;2.87;;
11699;SDS011;5906;51.660;6.674;2023-06-05T14:53:04;2.40;;;2.20;;
11699;SDS011;5906;51.660;6.674;2023-06-05T14:55:31;3.90;;;2.70;;
11699;SDS011;5906;51.660;6.674;2023-06-05T14:57:58;5.10;;;2.80;;
11699;SDS011;5906;51.660;6.674;2023-06-05T15:00:24;5.63;;;3.40;;
11699;SDS011;5906;51.660;6.674;2023-06-05T15:02:52;4.27;;;3.40;;
11699;SDS011;5906;51.660;6.674;2023-06-05T15:05:19;3.60;;;2.60;;
11699;SDS011;5906;51.660;6.674;2023-06-05T15:07:47;4.30;;;3.00;;
11699;SDS011;5906;51.660;6.674;2023-06-05T15:10:14;5.43;;;2.73;;
11699;SDS011;5906;51.660;6.674;2023-06-05T15:12:42;3.30;;;2.30;;
11699;SDS011;5906;51.660;6.674;2023-06-05T15:15:09;8.23;;;2.60;;
11699;SDS011;5906;51.660;6.674;2023-06-05T15:17:46;5.30;;;2.90;;
11699;SDS011;5906;51.660;6.674;2023-06-05T15:20:14;4.70;;;3.13;;
11699;SDS011;5906;51.660;6.674;2023-06-05T15:22:41;3.37;;;3.03;;
11699;SDS011;5906;51.660;6.674;2023-06-05T15:25:08;9.30;;;2.83;;
11699;SDS011;5906;51.660;6.674;2023-06-05T15:27:35;3.70;;;2.80;;
11699;SDS011;5906;51.660;6.674;2023-06-05T15:30:03;11.03;;;2.80;;
11699;SDS011;5906;51.660;6.674;2023-06-05T15:32:31;3.90;;;2.77;;
11699;SDS011;5906;51.660;6.674;2023-06-05T15:34:59;6.20;;;2.40;;
11699;SDS011;5906;51.660;6.674;2023-06-05T15:37:26;3.67;;;2.70;;
11699;SDS011;5906;51.660;6.674;2023-06-05T15:39:53;3.30;;;2.60;;
11699;SDS011;5906;51.660;6.674;2023-06-05T15:42:27;4.47;;;2.80;;
11699;SDS011;5906;51.660;6.674;2023-06-05T15:45:07;4.00;;;3.17;;
11699;SDS011;5906;51.660;6.674;2023-06-05T15:47:34;7.67;;;3.07;;
11699;SDS011;5906;51.660;6.674;2023-06-05T15:50:02;3.40;;;2.80;;
11699;SDS011;5906;51.660;6.674;2023-06-05T15:52:33;6.00;;;2.73;;
11699;SDS011;5906;51.660;6.674;2023-06-05T15:55:01;6.13;;;2.70;;
11699;SDS011;5906;51.660;6.674;2023-06-05T15:57:28;16.87;;;3.10;;
11699;SDS011;5906;51.660;6.674;2023-06-05T15:59:56;3.30;;;2.40;;
11699;SDS011;5906;51.660;6.674;2023-06-05T16:02:23;4.10;;;2.63;;
11699;SDS011;5906;51.660;6.674;2023-06-05T16:04:50;8.73;;;3.00;;